Time;durP1;ratioP1;P1;durP2;ratioP2;P2;SDS_P1;SDS_P2;PMS_P1;PMS_P2;Temp;Humidity;BMP_temperature;BMP_pressure;BME280_temperature;BME280_humidity;BME280_pressure;Samples;Min_cycle;Max_cycle;Signal;HPM_P1;HPM_P2
2022/08/13 00:00:59;;;;;;;0.38;0.38;;;19.70;93.30;;;;;;4898414;29;20824;-87
2022/08/13 00:03:27;;;;;;;0.52;0.50;;;19.60;93.70;;;;;;4898565;29;20132;-88
2022/08/13 00:05:54;;;;;;;0.95;0.60;;;19.60;93.80;;;;;;4898698;29;20384;-88
2022/08/13 00:08:23;;;;;;;0.20;0.13;;;19.50;93.90;;;;;;4898252;29;20103;-87
2022/08/13 00:10:50;;;;;;;0.40;0.30;;;19.50;94.30;;;;;;4882385;29;20044;-87
2022/08/13 00:13:16;;;;;;;0.20;0.20;;;19.40;94.00;;;;;;4899455;29;20052;-87
2022/08/13 00:15:44;;;;;;;0.32;0.28;;;19.40;94.30;;;;;;4898475;29;20044;-89
2022/08/13 00:18:16;;;;;;;0.22;0.20;;;19.30;94.40;;;;;;4867403;29;20040;-88
2022/08/13 00:20:54;;;;;;;0.47;0.40;;;19.30;94.30;;;;;;4883153;29;20059;-88
2022/08/13 00:23:22;;;;;;;0.10;0.10;;;19.20;94.70;;;;;;4896933;29;20048;-87
2022/08/13 00:25:54;;;;;;;0.25;0.20;;;19.20;94.60;;;;;;4897951;29;20134;-88
2022/08/13 00:28:22;;;;;;;0.32;0.32;;;19.10;94.70;;;;;;4882818;29;20084;-87
2022/08/13 00:30:48;;;;;;;0.57;0.30;;;19.10;94.70;;;;;;4882242;29;20048;-88
2022/08/13 00:33:17;;;;;;;0.20;0.20;;;19.00;94.80;;;;;;4896996;29;20375;-87
2022/08/13 00:35:44;;;;;;;0.17;0.17;;;19.00;95.10;;;;;;4898444;29;20050;-87
2022/08/13 00:38:20;;;;;;;0.15;0.15;;;18.90;95.20;;;;;;4882349;29;20048;-87
2022/08/13 00:40:57;;;;;;;0.40;0.40;;;18.80;95.30;;;;;;4883995;29;20039;-89
2022/08/13 00:43:27;;;;;;;0.10;0.10;;;18.80;95.80;;;;;;4898991;29;20115;-87
2022/08/13 00:45:54;;;;;;;0.00;0.00;;;18.80;96.10;;;;;;4882077;29;20379;-87
2022/08/13 00:51:08;;;;;;;0.10;0.10;;;18.60;95.90;;;;;;4897359;29;20091;-87
2022/08/13 00:53:37;;;;;;;0.28;0.28;;;18.60;96.20;;;;;;4897388;29;20049;-87
2022/08/13 00:56:03;;;;;;;0.30;0.30;;;18.50;96.40;;;;;;4882006;29;20059;-88
2022/08/13 00:58:29;;;;;;;0.17;0.17;;;18.50;96.70;;;;;;4882118;29;20080;-88
2022/08/13 01:00:58;;;;;;;0.60;0.52;;;18.40;97.20;;;;;;4882075;29;20059;-87
2022/08/13 01:03:31;;;;;;;0.20;0.20;;;18.40;97.30;;;;;;4896967;29;20063;-88
2022/08/13 01:06:01;;;;;;;0.30;0.30;;;18.30;97.30;;;;;;4882094;29;20087;-87
2022/08/13 01:08:31;;;;;;;0.20;0.20;;;18.30;97.20;;;;;;4883088;29;20054;-87
2022/08/13 01:11:02;;;;;;;0.28;0.22;;;18.20;97.70;;;;;;4895078;29;20056;-88
2022/08/13 01:13:33;;;;;;;0.32;0.32;;;18.20;98.00;;;;;;4882294;29;20079;-87
2022/08/13 01:16:00;;;;;;;0.10;0.10;;;18.20;98.00;;;;;;4882635;29;20037;-87
2022/08/13 01:18:26;;;;;;;0.30;0.30;;;18.10;98.40;;;;;;4882534;29;20048;-87
2022/08/13 01:21:07;;;;;;;0.10;0.10;;;18.10;98.30;;;;;;4881618;29;20476;-89
2022/08/13 01:23:32;;;;;;;0.20;0.20;;;18.10;98.50;;;;;;4882169;29;20080;-88
2022/08/13 01:25:59;;;;;;;0.25;0.25;;;18.00;98.50;;;;;;4881089;29;20112;-87
2022/08/13 01:28:29;;;;;;;;;;;18.00;98.60;;;;;;4882342;29;20078;-88
2022/08/13 01:30:59;;;;;;;0.32;0.22;;;17.90;98.80;;;;;;4911448;29;19998;-88
2022/08/13 01:33:24;;;;;;;0.20;0.20;;;17.90;98.70;;;;;;4898037;29;20204;-88
2022/08/13 01:35:53;;;;;;;0.25;0.25;;;17.90;99.00;;;;;;4896317;29;20498;-87
2022/08/13 01:38:22;;;;;;;0.40;0.40;;;17.80;99.30;;;;;;4881937;29;20076;-87
2022/08/13 01:40:48;;;;;;;0.13;0.13;;;17.80;99.40;;;;;;4897837;29;20051;-87
2022/08/13 01:43:17;;;;;;;0.20;0.20;;;17.70;99.20;;;;;;4894191;29;20076;-87
2022/08/13 01:45:44;;;;;;;0.30;0.30;;;17.70;99.20;;;;;;4897257;29;20069;-87
2022/08/13 01:50:55;;;;;;;0.35;0.35;;;17.60;99.50;;;;;;4883822;29;20085;-89
2022/08/13 01:53:21;;;;;;;0.50;0.22;;;17.60;99.70;;;;;;4881427;29;20040;-88
2022/08/13 01:55:55;;;;;;;0.30;0.30;;;17.50;99.70;;;;;;4882453;29;20120;-88
2022/08/13 01:58:24;;;;;;;0.40;0.40;;;17.50;99.90;;;;;;4881332;29;20048;-88
2022/08/13 02:00:57;;;;;;;0.10;0.10;;;17.50;99.90;;;;;;4897157;29;20095;-87
2022/08/13 02:03:23;;;;;;;0.20;0.20;;;17.40;99.90;;;;;;4897141;29;20048;-88
2022/08/13 02:05:50;;;;;;;0.38;0.38;;;17.40;99.90;;;;;;4898850;29;20119;-87
2022/08/13 02:08:22;;;;;;;0.40;0.38;;;17.30;99.90;;;;;;4881091;29;20136;-87
2022/08/13 02:10:53;;;;;;;0.52;0.40;;;17.30;99.90;;;;;;4881485;29;20055;-88
2022/08/13 02:13:22;;;;;;;0.20;0.20;;;17.30;99.90;;;;;;4896564;29;20071;-87
2022/08/13 02:15:49;;;;;;;0.20;0.20;;;17.20;99.90;;;;;;4881651;29;20054;-87
2022/08/13 02:18:18;;;;;;;0.22;0.22;;;17.20;99.90;;;;;;4884268;29;20051;-88
2022/08/13 02:20:46;;;;;;;0.43;0.17;;;17.20;99.90;;;;;;4881793;29;20131;-88
2022/08/13 02:23:19;;;;;;;0.32;0.20;;;17.20;99.90;;;;;;4896526;29;20063;-87
2022/08/13 02:25:46;;;;;;;0.40;0.40;;;17.20;99.90;;;;;;4894805;29;20442;-88
2022/08/13 02:28:14;;;;;;;0.88;0.30;;;17.20;99.90;;;;;;4893153;29;20084;-87
2022/08/13 02:30:41;;;;;;;0.20;0.20;;;17.10;99.90;;;;;;4881582;29;20406;-88
2022/08/13 02:33:08;;;;;;;0.17;0.17;;;17.00;99.90;;;;;;4900343;29;20040;-87
2022/08/13 02:35:35;;;;;;;0.30;0.30;;;17.00;99.90;;;;;;4900524;29;20047;-87
2022/08/13 02:38:03;;;;;;;0.45;0.45;;;17.00;99.90;;;;;;4900569;29;20055;-89
2022/08/13 02:43:13;;;;;;;0.40;0.30;;;16.90;99.90;;;;;;4899808;29;20048;-88
2022/08/13 02:45:40;;;;;;;0.43;0.43;;;16.90;99.90;;;;;;4884650;29;20043;-87
2022/08/13 02:48:06;;;;;;;0.10;0.10;;;16.80;99.90;;;;;;4902915;29;20063;-88
2022/08/13 02:50:33;;;;;;;0.30;0.30;;;16.80;99.90;;;;;;4868893;29;20072;-87
2022/08/13 02:52:59;;;;;;;0.20;0.20;;;16.70;99.90;;;;;;4900266;29;20513;-87
2022/08/13 02:55:29;;;;;;;0.20;0.20;;;16.70;99.90;;;;;;4884421;29;20178;-87
2022/08/13 02:57:54;;;;;;;0.60;0.32;;;16.70;99.90;;;;;;4899371;29;20063;-87
2022/08/13 03:00:21;;;;;;;0.20;0.20;;;16.60;99.90;;;;;;4883507;29;20398;-87
2022/08/13 03:02:48;;;;;;;0.30;0.30;;;16.60;99.90;;;;;;4902815;29;20490;-87
2022/08/13 03:05:17;;;;;;;0.30;0.30;;;16.60;99.90;;;;;;4868708;29;20044;-87
2022/08/13 03:07:44;;;;;;;0.20;0.20;;;16.50;99.90;;;;;;4899492;29;20581;-87
2022/08/13 03:10:13;;;;;;;0.43;0.30;;;16.50;99.90;;;;;;4883846;29;20597;-87
2022/08/13 03:12:59;;;;;;;0.20;0.20;;;16.50;99.90;;;;;;4889159;29;20051;-87
2022/08/13 03:15:26;;;;;;;0.47;0.47;;;16.40;99.90;;;;;;4898796;29;20060;-87
2022/08/13 03:17:52;;;;;;;0.20;0.15;;;16.40;99.90;;;;;;4889765;29;20051;-87
2022/08/13 03:20:17;;;;;;;0.25;0.25;;;16.40;99.90;;;;;;4884014;29;20141;-87
2022/08/13 03:22:55;;;;;;;0.50;0.27;;;15.80;99.90;;;;;;4885385;29;20044;-87
2022/08/13 03:25:22;;;;;;;0.20;0.20;;;16.30;99.90;;;;;;4899382;29;20068;-87
2022/08/13 03:27:50;;;;;;;0.20;0.20;;;16.30;99.90;;;;;;4898013;29;20103;-87
2022/08/13 03:30:18;;;;;;;0.38;0.25;;;16.20;99.90;;;;;;4893359;29;20418;-87
2022/08/13 03:32:46;;;;;;;0.28;0.28;;;16.20;99.90;;;;;;4880785;29;20051;-87
2022/08/13 03:35:23;;;;;;;0.25;0.25;;;16.20;99.90;;;;;;4875704;29;20503;-87
2022/08/13 03:37:53;;;;;;;0.30;0.30;;;16.10;99.90;;;;;;4911664;29;20053;-88
2022/08/13 03:40:20;;;;;;;0.20;0.20;;;16.10;99.90;;;;;;4896112;29;20050;-87
2022/08/13 03:42:50;;;;;;;0.25;0.25;;;16.10;99.90;;;;;;4895260;29;20566;-87
2022/08/13 03:45:18;;;;;;;0.20;0.20;;;16.10;99.90;;;;;;4895844;29;20423;-87
2022/08/13 03:47:45;;;;;;;0.10;0.10;;;16.00;99.90;;;;;;4895615;29;20047;-87
2022/08/13 03:50:11;;;;;;;;;;;16.00;99.90;;;;;;4866194;29;20045;-88
2022/08/13 03:52:38;;;;;;;0.30;0.30;;;15.90;99.90;;;;;;4879362;29;19998;-87
2022/08/13 03:55:09;;;;;;;;;;;15.90;99.90;;;;;;4880470;29;20058;-87
2022/08/13 03:57:40;;;;;;;0.20;0.20;;;15.90;99.90;;;;;;4878977;29;19946;-87
2022/08/13 04:00:12;;;;;;;0.70;0.30;;;15.90;99.90;;;;;;4896185;29;20526;-87
2022/08/13 04:02:40;;;;;;;0.60;0.20;;;15.80;99.90;;;;;;4895937;29;20111;-87
2022/08/13 04:05:16;;;;;;;0.25;0.25;;;15.80;99.90;;;;;;4880337;29;20119;-87
2022/08/13 04:07:43;;;;;;;0.20;0.20;;;15.80;99.90;;;;;;4878602;29;20048;-87
2022/08/13 04:10:11;;;;;;;0.43;0.40;;;15.70;99.90;;;;;;4881843;29;20055;-87
2022/08/13 04:12:38;;;;;;;0.28;0.20;;;15.70;99.90;;;;;;4895017;29;20111;-86
2022/08/13 04:15:06;;;;;;;0.20;0.20;;;15.70;99.90;;;;;;4895754;29;20040;-85
2022/08/13 04:17:40;;;;;;;0.70;0.52;;;15.70;99.90;;;;;;4873425;29;20061;-85
2022/08/13 04:20:10;;;;;;;0.20;0.20;;;15.60;99.90;;;;;;4892907;29;20064;-85
2022/08/13 04:22:39;;;;;;;0.47;0.47;;;15.60;99.90;;;;;;4879006;29;20044;-86
2022/08/13 04:25:09;;;;;;;0.40;0.40;;;15.60;99.90;;;;;;4895209;29;20041;-86
2022/08/13 04:27:35;;;;;;;0.40;0.32;;;15.50;99.90;;;;;;4878925;29;20079;-85
2022/08/13 04:30:03;;;;;;;0.43;0.30;;;15.50;99.90;;;;;;4879612;29;20402;-85
2022/08/13 04:32:29;;;;;;;0.52;0.25;;;15.50;99.90;;;;;;4875342;29;20055;-86
2022/08/13 04:34:55;;;;;;;0.77;0.70;;;15.50;99.90;;;;;;4880575;29;20048;-85
2022/08/13 04:37:22;;;;;;;0.52;0.38;;;15.50;99.90;;;;;;4894516;29;20179;-85
2022/08/13 04:39:53;;;;;;;1.33;0.30;;;15.50;99.90;;;;;;4864327;29;20123;-85
2022/08/13 04:42:19;;;;;;;0.35;0.35;;;15.50;99.90;;;;;;4895710;29;20099;-86
2022/08/13 04:44:47;;;;;;;0.20;0.20;;;15.50;99.90;;;;;;4879903;29;20083;-85
2022/08/13 04:47:13;;;;;;;0.20;0.20;;;14.40;99.90;;;;;;4863985;29;20087;-87
2022/08/13 04:49:39;;;;;;;0.47;0.20;;;15.50;99.90;;;;;;4878662;29;20091;-88
2022/08/13 04:52:05;;;;;;;0.60;0.30;;;15.50;99.90;;;;;;4897051;29;20056;-88
2022/08/13 04:54:30;;;;;;;0.30;0.30;;;15.50;99.90;;;;;;4878393;29;20305;-87
2022/08/13 04:56:56;;;;;;;0.20;0.20;;;15.60;99.90;;;;;;4878999;29;20561;-88
2022/08/13 04:59:22;;;;;;;0.13;0.13;;;15.50;99.90;;;;;;4893999;29;20092;-88
2022/08/13 05:01:48;;;;;;;1.63;0.33;;;15.50;99.90;;;;;;4895158;29;20040;-86
2022/08/13 05:04:17;;;;;;;0.10;0.10;;;15.60;99.90;;;;;;4894747;29;20053;-85
2022/08/13 05:06:44;;;;;;;0.57;0.32;;;15.60;99.90;;;;;;4894183;29;20052;-86
2022/08/13 05:09:10;;;;;;;0.15;0.15;;;15.60;99.90;;;;;;4893437;29;20048;-86
2022/08/13 05:11:35;;;;;;;0.30;0.30;;;15.70;99.90;;;;;;4862886;29;20451;-85
2022/08/13 05:14:01;;;;;;;0.30;0.30;;;15.70;99.90;;;;;;4863421;29;20119;-85
2022/08/13 05:16:26;;;;;;;1.67;0.13;;;15.80;99.90;;;;;;4863204;29;20048;-86
2022/08/13 05:18:54;;;;;;;0.50;0.30;;;15.80;99.90;;;;;;4865115;29;20044;-86
2022/08/13 05:21:24;;;;;;;0.30;0.30;;;15.90;99.90;;;;;;4878088;29;20056;-87
2022/08/13 05:23:53;;;;;;;0.30;0.30;;;16.00;99.90;;;;;;4893688;29;20080;-85
2022/08/13 05:26:21;;;;;;;0.52;0.35;;;16.00;99.90;;;;;;4879091;29;20051;-85
2022/08/13 05:28:48;;;;;;;0.52;0.40;;;16.10;99.90;;;;;;4892852;29;20139;-85
2022/08/13 05:31:13;;;;;;;0.35;0.35;;;16.20;99.90;;;;;;4894212;29;20037;-85
2022/08/13 05:33:39;;;;;;;0.50;0.50;;;16.30;99.90;;;;;;4879670;29;20100;-86
2022/08/13 05:36:05;;;;;;;0.37;0.37;;;16.40;99.90;;;;;;4876176;29;20079;-86
2022/08/13 05:38:32;;;;;;;0.20;0.20;;;16.50;99.90;;;;;;4893779;29;20048;-85
2022/08/13 05:41:04;;;;;;;0.30;0.30;;;16.60;99.90;;;;;;4894496;29;20059;-86
2022/08/13 05:43:33;;;;;;;0.28;0.28;;;16.40;99.90;;;;;;4906535;29;20076;-86
2022/08/13 05:46:02;;;;;;;0.68;0.40;;;16.90;99.90;;;;;;4878889;29;20064;-86
2022/08/13 05:48:42;;;;;;;0.60;0.38;;;17.10;99.90;;;;;;4878804;29;20044;-86
2022/08/13 05:51:13;;;;;;;0.32;0.28;;;17.30;99.90;;;;;;4893783;29;20053;-85
2022/08/13 05:53:39;;;;;;;0.20;0.20;;;17.60;99.90;;;;;;4875536;29;20037;-85
2022/08/13 05:56:06;;;;;;;0.38;0.38;;;17.90;99.90;;;;;;4878596;29;20264;-87
2022/08/13 05:58:34;;;;;;;0.40;0.40;;;18.20;99.90;;;;;;4877075;29;20139;-86
2022/08/13 06:03:44;;;;;;;0.20;0.20;;;18.70;99.90;;;;;;4895006;29;20052;-87
2022/08/13 06:06:11;;;;;;;0.50;0.50;;;19.00;99.90;;;;;;4862292;29;20058;-86
2022/08/13 06:08:40;;;;;;;0.28;0.28;;;19.30;99.90;;;;;;4896375;29;20058;-86
2022/08/13 06:11:17;;;;;;;0.80;0.30;;;20.40;99.90;;;;;;4910841;29;20407;-87
2022/08/13 06:13:48;;;;;;;0.30;0.30;;;19.70;99.90;;;;;;4896271;29;20052;-88
2022/08/13 06:16:17;;;;;;;0.68;0.40;;;20.00;99.90;;;;;;4881030;29;20055;-88
2022/08/13 06:18:44;;;;;;;0.70;0.50;;;20.20;99.90;;;;;;4894393;29;20044;-87
2022/08/13 06:21:12;;;;;;;0.10;0.10;;;20.40;99.90;;;;;;4911058;29;20465;-96
2022/08/13 06:23:40;;;;;;;0.20;0.20;;;20.50;99.90;;;;;;4897811;29;20107;-85
2022/08/13 06:26:08;;;;;;;0.40;0.35;;;20.70;99.90;;;;;;4897496;29;20049;-88
2022/08/13 06:28:35;;;;;;;0.17;0.17;;;20.80;99.90;;;;;;4878236;29;20079;-92
2022/08/13 06:31:04;;;;;;;0.22;0.20;;;20.90;99.90;;;;;;4884139;29;20060;-95
2022/08/13 06:33:33;;;;;;;0.10;0.10;;;21.10;99.90;;;;;;4894976;29;20461;-89
2022/08/13 06:36:06;;;;;;;0.65;0.65;;;21.30;99.90;;;;;;4874900;29;20048;-91
2022/08/13 06:38:41;;;;;;;0.20;0.20;;;21.50;99.80;;;;;;4897499;29;20092;-90
2022/08/13 06:41:08;;;;;;;0.10;0.10;;;21.70;99.00;;;;;;4895354;29;20498;-89
2022/08/13 06:43:37;;;;;;;0.20;0.20;;;21.80;98.90;;;;;;4896638;29;20091;-90
2022/08/13 06:46:05;;;;;;;0.10;0.10;;;21.90;98.60;;;;;;4879774;29;20123;-89
2022/08/13 06:48:33;;;;;;;0.20;0.20;;;22.10;98.20;;;;;;4897238;29;20120;-89
2022/08/13 06:51:00;;;;;;;0.20;0.20;;;22.20;97.10;;;;;;4897600;29;20523;-91
2022/08/13 06:53:25;;;;;;;0.30;0.30;;;22.20;97.30;;;;;;4912885;29;20048;-89
2022/08/13 06:55:52;;;;;;;0.40;0.30;;;23.40;97.60;;;;;;4896381;29;20049;-88
2022/08/13 06:58:27;;;;;;;0.20;0.20;;;22.50;97.00;;;;;;4882914;29;20051;-94
2022/08/13 07:00:55;;;;;;;0.10;0.10;;;22.60;96.60;;;;;;4881859;29;20529;-88
2022/08/13 07:03:29;;;;;;;0.20;0.20;;;22.70;96.40;;;;;;4896578;29;20446;-91
2022/08/13 07:05:58;;;;;;;0.10;0.10;;;22.90;95.70;;;;;;4894342;29;20056;-91
2022/08/13 07:08:25;;;;;;;0.10;0.10;;;23.10;96.00;;;;;;4897212;29;20045;-89
2022/08/13 07:13:45;;;;;;;0.10;0.10;;;23.30;95.40;;;;;;4882176;29;20084;-88
2022/08/13 07:16:16;;;;;;;0.13;0.13;;;23.50;94.20;;;;;;4896957;29;20047;-88
2022/08/13 07:18:43;;;;;;;0.10;0.05;;;23.60;94.50;;;;;;4895935;29;20055;-87
2022/08/13 07:21:11;;;;;;;0.10;0.10;;;23.80;94.20;;;;;;4881253;29;20044;-88
2022/08/13 07:23:38;;;;;;;0.13;0.13;;;23.80;94.00;;;;;;4865687;29;20048;-89
2022/08/13 07:26:04;;;;;;;0.20;0.20;;;23.90;93.80;;;;;;4881547;29;20188;-88
2022/08/13 07:28:32;;;;;;;0.13;0.13;;;24.00;93.70;;;;;;4880103;29;20049;-89
2022/08/13 07:30:59;;;;;;;0.45;0.32;;;24.10;93.40;;;;;;4880444;29;20044;-89
2022/08/13 07:33:25;;;;;;;0.20;0.20;;;24.20;93.40;;;;;;4896901;29;20063;-89
2022/08/13 07:35:54;;;;;;;0.20;0.20;;;24.30;93.00;;;;;;4897130;29;20127;-89
2022/08/13 07:38:20;;;;;;;0.20;0.20;;;24.60;93.00;;;;;;4896226;29;20607;-88
2022/08/13 07:40:55;;;;;;;0.10;0.10;;;24.30;92.80;;;;;;4895901;29;20055;-88
2022/08/13 07:43:22;;;;;;;0.20;0.20;;;24.90;92.30;;;;;;4881269;29;20099;-89
2022/08/13 07:46:09;;;;;;;0.20;0.20;;;25.00;92.10;;;;;;4880359;29;20055;-96
2022/08/13 07:48:40;;;;;;;0.20;0.20;;;25.00;90.20;;;;;;4882127;29;20128;-91
2022/08/13 07:51:18;;;;;;;0.10;0.10;;;25.10;91.70;;;;;;4882244;29;20052;-91
2022/08/13 07:53:49;;;;;;;0.32;0.20;;;25.20;91.30;;;;;;4895410;29;20086;-91
2022/08/13 07:56:28;;;;;;;0.38;0.20;;;25.20;91.00;;;;;;4894074;29;20494;-91
2022/08/13 07:59:00;;;;;;;0.15;0.15;;;25.30;90.80;;;;;;4879546;29;20051;-90
2022/08/13 08:01:33;;;;;;;0.30;0.30;;;25.50;90.50;;;;;;4895762;29;20108;-92
2022/08/13 08:04:04;;;;;;;0.10;0.10;;;25.60;90.30;;;;;;4880454;29;20124;-91
2022/08/13 08:06:30;;;;;;;0.30;0.30;;;25.70;90.10;;;;;;4904904;29;20082;-92
2022/08/13 08:08:57;;;;;;;;;;;25.80;89.30;;;;;;4898534;29;20053;-89
2022/08/13 08:14:07;;;;;;;0.30;0.20;;;25.90;89.50;;;;;;4899030;29;20066;-88
2022/08/13 08:16:37;;;;;;;0.32;0.32;;;26.00;89.50;;;;;;4908308;29;20125;-89
2022/08/13 08:19:06;;;;;;;0.30;0.30;;;26.10;88.50;;;;;;4880618;29;20056;-90
2022/08/13 08:21:32;;;;;;;0.17;0.17;;;26.10;87.60;;;;;;4882140;29;20056;-90
2022/08/13 08:24:03;;;;;;;;;;;26.20;88.90;;;;;;4896526;29;20124;-91
2022/08/13 08:26:32;;;;;;;0.17;0.17;;;26.30;84.50;;;;;;4879545;29;19927;-91
2022/08/13 08:29:03;;;;;;;0.10;0.10;;;26.50;88.00;;;;;;4878313;29;20136;-92
2022/08/13 08:31:29;;;;;;;0.10;0.08;;;26.70;87.40;;;;;;4894227;29;20538;-93
2022/08/13 08:33:56;;;;;;;;;;;26.80;87.60;;;;;;4877758;29;20062;-90
2022/08/13 08:36:23;;;;;;;0.08;0.08;;;26.80;81.20;;;;;;4896887;29;19923;-93
2022/08/13 08:44:24;;;;;;;0.13;0.13;;;27.10;86.30;;;;;;4915196;29;20557;-92
2022/08/13 08:46:57;;;;;;;0.20;0.20;;;27.20;85.40;;;;;;4914663;29;20063;-92
2022/08/13 08:49:24;;;;;;;0.10;0.10;;;27.40;84.80;;;;;;4915603;29;20052;-92
2022/08/13 08:51:52;;;;;;;0.13;0.13;;;27.50;84.90;;;;;;4899001;29;20495;-92
2022/08/13 08:54:19;;;;;;;0.10;0.10;;;27.60;85.10;;;;;;4889981;29;20048;-92
2022/08/13 08:56:54;;;;;;;0.52;0.47;;;27.70;84.70;;;;;;4884095;29;20141;-93
2022/08/13 08:59:23;;;;;;;0.10;0.10;;;27.70;82.80;;;;;;4862403;29;20143;-92
2022/08/13 09:01:55;;;;;;;0.15;0.13;;;27.80;83.30;;;;;;4843058;29;20095;-91
2022/08/13 09:04:25;;;;;;;0.90;0.30;;;27.90;82.80;;;;;;4847038;29;20147;-93
2022/08/13 09:06:53;;;;;;;0.20;0.20;;;27.90;82.20;;;;;;4854782;29;20495;-91
2022/08/13 09:09:20;;;;;;;0.40;0.20;;;28.00;82.00;;;;;;4866126;29;20399;-93
2022/08/13 09:11:55;;;;;;;0.20;0.20;;;28.10;81.70;;;;;;4852341;29;20080;-94
2022/08/13 09:14:30;;;;;;;0.10;0.10;;;28.10;78.10;;;;;;4863281;29;21588;-92
2022/08/13 09:16:57;;;;;;;0.30;0.13;;;28.10;78.10;;;;;;4846696;29;20063;-92
2022/08/13 09:19:25;;;;;;;0.20;0.20;;;28.20;80.40;;;;;;4854397;29;20048;-93
2022/08/13 09:21:51;;;;;;;0.20;0.20;;;28.30;79.80;;;;;;4896494;29;20482;-95
2022/08/13 09:24:21;;;;;;;0.17;0.17;;;28.30;79.10;;;;;;4897216;29;20044;-91
2022/08/13 09:26:51;;;;;;;0.10;0.10;;;28.30;78.90;;;;;;4887331;29;20047;-92
2022/08/13 09:29:19;;;;;;;0.20;0.20;;;28.30;77.90;;;;;;4894859;29;20059;-90
2022/08/13 09:31:50;;;;;;;0.13;0.13;;;28.20;77.30;;;;;;4894956;29;20052;-92
2022/08/13 09:34:17;;;;;;;0.10;0.10;;;28.20;77.70;;;;;;4878038;29;20055;-90
2022/08/13 09:36:45;;;;;;;0.30;0.30;;;28.20;77.60;;;;;;4886644;29;20427;-93
2022/08/13 09:39:42;;;;;;;0.30;0.30;;;28.20;77.10;;;;;;4884548;29;20120;-92
2022/08/13 09:42:14;;;;;;;0.17;0.17;;;28.20;75.60;;;;;;4872536;29;20049;-92
2022/08/13 09:44:41;;;;;;;0.10;0.10;;;28.20;75.10;;;;;;4875462;29;20116;-93
2022/08/13 09:47:10;;;;;;;0.10;0.10;;;28.30;76.50;;;;;;4869612;29;20155;-88
2022/08/13 09:49:38;;;;;;;0.28;0.10;;;28.30;75.90;;;;;;4876109;29;20418;-91
2022/08/13 09:52:07;;;;;;;0.50;0.20;;;28.30;75.90;;;;;;4837386;29;20415;-91
2022/08/13 09:54:39;;;;;;;0.20;0.20;;;28.40;75.00;;;;;;4857070;29;20082;-94
2022/08/13 09:57:05;;;;;;;0.10;0.10;;;28.50;74.50;;;;;;4860941;29;20080;-92
2022/08/13 09:59:32;;;;;;;0.20;0.20;;;28.50;75.00;;;;;;4883620;29;20458;-94
2022/08/13 10:02:05;;;;;;;0.20;0.20;;;28.60;74.60;;;;;;4867056;29;20086;-88
2022/08/13 10:04:32;;;;;;;0.38;0.38;;;28.60;74.50;;;;;;4866483;29;20521;-93
2022/08/13 10:07:00;;;;;;;0.30;0.30;;;28.70;73.90;;;;;;4880520;29;20057;-90
2022/08/13 10:09:26;;;;;;;0.10;0.10;;;28.80;73.60;;;;;;4896835;29;20044;-93
2022/08/13 10:11:59;;;;;;;0.30;0.30;;;28.80;73.10;;;;;;4894658;29;20048;-93
2022/08/13 10:14:26;;;;;;;0.10;0.10;;;28.80;72.10;;;;;;4848931;29;20135;-93
2022/08/13 10:16:58;;;;;;;0.25;0.25;;;28.90;73.20;;;;;;4834474;29;20049;-94
2022/08/13 10:19:24;;;;;;;0.10;0.10;;;29.00;70.50;;;;;;4849975;29;20052;-94
2022/08/13 10:21:50;;;;;;;0.20;0.20;;;29.00;72.10;;;;;;4865356;29;20104;-93
2022/08/13 10:24:16;;;;;;;0.10;0.10;;;29.10;71.80;;;;;;4849456;29;20116;-93
2022/08/13 10:26:42;;;;;;;0.30;0.30;;;29.10;71.40;;;;;;4849887;29;20551;-94
2022/08/13 10:29:10;;;;;;;0.28;0.28;;;29.20;71.40;;;;;;4874422;29;20498;-93
2022/08/13 10:31:39;;;;;;;0.30;0.30;;;29.20;71.00;;;;;;4886819;29;20052;-93
2022/08/13 10:34:05;;;;;;;0.17;0.17;;;29.20;71.00;;;;;;4901892;29;20131;-92
2022/08/13 10:36:33;;;;;;;0.20;0.20;;;29.20;70.90;;;;;;4887041;29;20048;-92
2022/08/13 10:38:59;;;;;;;0.22;0.22;;;29.30;70.50;;;;;;4885153;29;20056;-90
2022/08/13 10:41:25;;;;;;;0.10;0.10;;;29.40;69.90;;;;;;4886197;29;20052;-96
2022/08/13 10:43:56;;;;;;;0.20;0.17;;;29.50;69.40;;;;;;4906511;29;20051;-96
2022/08/13 10:46:21;;;;;;;0.20;0.20;;;29.50;69.60;;;;;;4902374;29;20107;-95
2022/08/13 10:48:51;;;;;;;0.15;0.15;;;29.60;69.70;;;;;;4887088;29;20056;-95
2022/08/13 10:51:17;;;;;;;0.30;0.28;;;29.60;69.60;;;;;;4886709;29;20048;-96
2022/08/13 10:53:55;;;;;;;0.40;0.40;;;29.60;69.20;;;;;;4902965;29;20088;-94
2022/08/13 10:56:21;;;;;;;0.28;0.28;;;29.70;69.10;;;;;;4887829;29;20092;-96
2022/08/13 10:58:48;;;;;;;0.00;0.00;;;29.80;69.30;;;;;;4887392;29;20095;-96
2022/08/13 11:01:14;;;;;;;0.20;0.20;;;29.80;68.40;;;;;;4902164;29;20100;-96
2022/08/13 11:03:42;;;;;;;0.20;0.20;;;29.90;68.50;;;;;;4902544;29;20495;-96
2022/08/13 11:06:08;;;;;;;0.30;0.30;;;30.00;68.40;;;;;;4886256;29;20074;-96
2022/08/13 11:08:37;;;;;;;0.20;0.20;;;30.00;67.60;;;;;;4886626;29;20040;-96
2022/08/13 11:11:05;;;;;;;0.32;0.30;;;30.10;67.60;;;;;;4886498;29;20051;-96
2022/08/13 11:13:31;;;;;;;0.17;0.17;;;30.20;67.70;;;;;;4902898;29;20470;-96
2022/08/13 11:15:58;;;;;;;0.10;0.10;;;30.10;67.50;;;;;;4887678;29;20056;-96
2022/08/13 11:18:26;;;;;;;0.17;0.17;;;30.20;66.90;;;;;;4870762;29;20051;-96
2022/08/13 11:21:06;;;;;;;0.13;0.13;;;30.20;66.60;;;;;;4886691;29;20139;-96
2022/08/13 11:23:33;;;;;;;0.20;0.20;;;30.30;66.50;;;;;;4887343;29;20052;-96
2022/08/13 11:25:59;;;;;;;0.10;0.10;;;30.40;66.40;;;;;;4901702;29;20051;-96
2022/08/13 11:28:25;;;;;;;0.38;0.38;;;30.40;66.10;;;;;;4901280;29;20120;-90
2022/08/13 11:30:52;;;;;;;0.10;0.10;;;30.40;65.60;;;;;;4906840;29;20044;-93
2022/08/13 11:33:20;;;;;;;0.10;0.10;;;30.40;63.20;;;;;;4921429;29;20375;-96
2022/08/13 11:35:46;;;;;;;0.77;0.30;;;30.30;65.20;;;;;;4895505;29;20091;-96
2022/08/13 11:38:13;;;;;;;0.10;0.10;;;30.40;65.10;;;;;;4904716;29;20036;-90
2022/08/13 11:40:48;;;;;;;0.20;0.20;;;30.40;64.60;;;;;;4909199;29;20039;-91
2022/08/13 11:43:15;;;;;;;0.30;0.20;;;30.50;63.00;;;;;;4915932;29;20052;-94
2022/08/13 11:45:40;;;;;;;0.30;0.30;;;30.60;63.40;;;;;;4904627;29;20059;-92
2022/08/13 11:48:07;;;;;;;0.28;0.28;;;30.70;63.90;;;;;;4919872;29;20047;-91
2022/08/13 11:50:33;;;;;;;0.10;0.10;;;30.80;64.40;;;;;;4914025;29;20103;-92
2022/08/13 11:52:58;;;;;;;0.20;0.10;;;30.80;64.10;;;;;;4919089;29;20407;-94
2022/08/13 11:55:24;;;;;;;0.20;0.20;;;30.90;63.10;;;;;;4903713;29;20548;-92
2022/08/13 11:58:05;;;;;;;0.20;0.20;;;30.90;63.50;;;;;;4920931;29;20047;-92
2022/08/13 12:00:32;;;;;;;0.30;0.30;;;31.00;61.50;;;;;;4913639;29;20055;-96
2022/08/13 12:02:57;;;;;;;0.20;0.20;;;30.90;62.70;;;;;;4911057;29;20055;-92
2022/08/13 12:05:23;;;;;;;0.40;0.40;;;31.00;62.60;;;;;;4903665;29;20110;-93
2022/08/13 12:07:49;;;;;;;0.20;0.20;;;31.10;62.70;;;;;;4915455;29;20409;-96
2022/08/13 12:10:16;;;;;;;0.10;0.10;;;31.10;62.40;;;;;;4917629;29;20043;-89
2022/08/13 12:12:43;;;;;;;0.22;0.22;;;31.10;62.40;;;;;;4919907;29;20384;-94
2022/08/13 12:15:10;;;;;;;0.15;0.15;;;31.30;62.00;;;;;;4920922;29;20058;-93
2022/08/13 12:17:43;;;;;;;0.10;0.10;;;31.30;61.80;;;;;;4915765;29;20126;-93
2022/08/13 12:20:12;;;;;;;0.20;0.20;;;31.30;58.80;;;;;;4902234;29;20048;-93
2022/08/13 12:22:40;;;;;;;0.20;0.20;;;31.40;60.50;;;;;;4921778;29;20043;-92
2022/08/13 12:25:07;;;;;;;0.20;0.20;;;31.40;60.40;;;;;;4894230;29;20079;-92
2022/08/13 12:27:33;;;;;;;0.10;0.10;;;31.50;60.80;;;;;;4897476;29;20059;-96
2022/08/13 12:29:59;;;;;;;0.35;0.30;;;31.60;60.50;;;;;;4911974;29;20063;-92
2022/08/13 12:32:24;;;;;;;0.25;0.25;;;31.60;60.70;;;;;;4885833;29;20052;-92
2022/08/13 12:34:52;;;;;;;0.03;0.03;;;31.70;60.80;;;;;;4882467;29;20048;-93
2022/08/13 12:37:18;;;;;;;0.20;0.20;;;31.80;60.70;;;;;;4882994;29;20044;-90
2022/08/13 12:39:43;;;;;;;0.20;0.20;;;31.80;60.40;;;;;;4891295;29;20095;-95
2022/08/13 12:42:09;;;;;;;0.10;0.10;;;31.90;60.50;;;;;;4887578;29;20056;-93
2022/08/13 12:44:35;;;;;;;0.20;0.20;;;32.00;60.30;;;;;;4872661;29;20051;-93
2022/08/13 12:47:01;;;;;;;0.30;0.30;;;32.10;60.20;;;;;;4897988;29;20480;-92
2022/08/13 12:49:27;;;;;;;0.20;0.20;;;32.10;59.50;;;;;;4882785;29;20040;-92
2022/08/13 12:51:52;;;;;;;0.35;0.35;;;32.10;59.90;;;;;;4887301;29;20042;-92
2022/08/13 12:54:18;;;;;;;0.25;0.25;;;32.00;59.30;;;;;;4884091;29;20047;-92
2022/08/13 12:56:45;;;;;;;0.30;0.30;;;31.90;59.70;;;;;;4912984;29;20040;-92
2022/08/13 12:59:11;;;;;;;0.38;0.20;;;31.80;59.10;;;;;;4899193;29;20083;-92
2022/08/13 13:01:37;;;;;;;0.20;0.20;;;31.80;59.30;;;;;;4889824;29;20135;-92
2022/08/13 13:04:03;;;;;;;0.20;0.20;;;31.70;59.40;;;;;;4881441;29;20063;-92
2022/08/13 13:06:29;;;;;;;0.20;0.20;;;31.60;59.50;;;;;;4888121;29;20044;-91
2022/08/13 13:08:54;;;;;;;0.25;0.15;;;31.70;59.60;;;;;;4891298;29;20102;-92
2022/08/13 13:11:20;;;;;;;0.10;0.10;;;31.80;59.60;;;;;;4897026;29;20048;-92
2022/08/13 13:13:49;;;;;;;0.30;0.30;;;31.80;59.50;;;;;;4891855;29;20123;-92
2022/08/13 13:16:15;;;;;;;0.30;0.30;;;31.70;59.30;;;;;;4899979;29;20230;-90